Terminal Aerodrome Forecast
Issued by NWS Buffalo, NY

Home | Current Version | Previous Version | Text Only | Print | Product List | Glossary On
Versions: 1 2 3 4 5 6 7 8 9 10 11 12 13 14 15 16 17 18 19 20 21 22 23 24 25 26 27 28
624
FTUS41 KBUF 061120
TAFART
TAF
KART 061120Z 0612/0712 20009KT 6SM -SHSN OVC040
      TEMPO 0612/0616 2SM -SN OVC025
     FM061600 22015G21KT P6SM VCSH OVC035
     FM061900 23015G21KT P6SM OVC040
     FM062300 23013KT P6SM BKN050
     FM070600 23009KT P6SM BKN050=

USA.gov is the U.S. government's official web portal to all federal, state and local government web resources and services.